New Bern, NC

10:59 AM EST on February 06, 2016 (GMT -0500)
Craven County EOC | | Change Station
CLOSE
Current Station
Personal Weather Station
Location: New Bern, NC
Elevation: 20 ft
Nearby Weather Stations
Active Advisory: Flood Warning

Elev 20 ft 35.11 °N, 77.04 °W | Updated 8 minutes ago

Clear
Clear
43.3 °F
Feels Like 41 °F
N
4.2
Wind Variable Wind from West

Today
High -- | Low -- °F
--% Chance of Precip.
Yesterday
High -- | Low -- °F
Precip. -- in
Pressure 30.44 in
Visibility 10.0 miles
Clouds Clear
Windchill 41 °F
Dew Point 26 °F
Humidity 51%
Rainfall 0.00 in
Snow Depth Not available.
7:03 AM 5:41 PM
Waning Crescent, 5% visible
METAR KEWN 061454Z 03011KT 10SM CLR 06/M03 A3044 RMK AO2 SLP308 T00561033 57010
Pressure 30.44 in
Visibility 10.0 miles
Clouds Clear
Windchill 41 °F
Dew Point 26 °F
Humidity 51%
Rainfall 0.00 in
Snow Depth Not available.
7:03 AM 5:41 PM
Waning Crescent, 5% visible
METAR KEWN 061454Z 03011KT 10SM CLR 06/M03 A3044 RMK AO2 SLP308 T00561033 57010

10-Day Weather Forecast

Almanac

Astronomy

Feb. 06, 2016 Rise Set
Actual Time
Civil Twilight
Nautical Twilight
Astronomical Twilight
Moon
Length of Visible Light
Length of Day
Tomorrow will be .
, % of the Moon is Illuminated

Today's Extremes

State Highs State Lows

Community

WunderPhotos

Upload Photos

1,890,987 photos uploaded!

WunderBlog® & News

Nearby

Air Quality

  Air Quality AQ Index Pollutant
Not available.

Snow Depth

Station Depth Elevation

Earthquake Activity

City Distance Mag. Time & Date
Minimum magnitude displayed is 2.5.

Coastal Water Temperatures

Place Temperature

Stations

Nearby Weather Stations

Station Location Temp. Windchill Dew Point Humidity Wind Precip. Elev Updated Type
                   

Watches & Warnings

Flood Warning
Issued: 2:43 AM EST Feb. 6, 2016 – National Weather Service

The National Weather Service in Newport has issued a

* Flood Warning for
the Swift Creek near streets Ferry.
* Until further notice... or until the warning is cancelled.
* At 2 am Saturday the stage was 4.0 feet.
* Flood stage is 4.0 feet.
* Impact... at 4.0 feet... water will overflow banks and begin to
threaten a few homes along streets Ferry Road just south of the
creek. Streets Ferry Road starts to flood.


Lat... Lon 3531 7715 3529 7713 3524 7709 3522 7711
          3528 7720 3530 7718